Kielce, Poland
Current Conditions -  °F | °C
As of 4:30 PM on Thursday 18 Dec 2014 (Local Time) from EPKK Reporting Station
Broken Clouds Broken Clouds  
Wind Chill: 41°   Ceiling: 4000
Heat Index: 45°   Visibility: 6mi
Dew Point: 39°   Wind: 7mph
Humidity: 81%   Direction: 240°WSW
Pressure: 29.91"   Gusts: NA
Location:  50.89°N, 20.65°E
Report Text: EPKK 181430Z 24006KT 9999 BKN040 07/04 Q1013
Loading
Personal Weather Stations






























Interactive Weather Map New forecast layout! Learn more

10-Day Weather Forecast

Advertisements
Track Severe Weather on mobile